createdAt,value
2022-08-14T00:00:14.031Z,14.17
2022-08-14T00:02:44.306Z,13.13
2022-08-14T00:05:16.583Z,13.80
2022-08-14T00:07:43.921Z,13.27
2022-08-14T00:10:49.621Z,13.33
2022-08-14T00:13:06.852Z,15.37
2022-08-14T00:15:43.494Z,13.37
2022-08-14T00:18:14.510Z,14.40
2022-08-14T00:20:58.210Z,15.20
2022-08-14T00:23:26.286Z,14.70
2022-08-14T00:26:05.961Z,15.23
2022-08-14T00:28:36.026Z,14.93
2022-08-14T00:31:06.558Z,15.30
2022-08-14T00:33:50.430Z,13.90
2022-08-14T00:36:37.431Z,14.80
2022-08-14T00:39:09.677Z,15.17
2022-08-14T00:41:38.859Z,14.80
2022-08-14T00:44:06.636Z,14.70
2022-08-14T00:46:33.785Z,15.80
2022-08-14T00:49:02.127Z,14.97
2022-08-14T00:51:34.726Z,14.87
2022-08-14T00:54:11.062Z,15.00
2022-08-14T00:56:50.448Z,15.20
2022-08-14T00:59:17.600Z,14.50
2022-08-14T01:01:45.516Z,15.10
2022-08-14T01:04:51.352Z,14.93
2022-08-14T01:07:04.925Z,13.47
2022-08-14T01:09:36.622Z,14.30
2022-08-14T01:12:04.960Z,14.40
2022-08-14T01:14:32.661Z,14.50
2022-08-14T01:17:04.065Z,15.03
2022-08-14T01:19:49.575Z,15.07
2022-08-14T01:22:19.008Z,14.63
2022-08-14T01:24:47.010Z,16.53
2022-08-14T01:27:24.271Z,15.87
2022-08-14T01:30:00.638Z,15.63
2022-08-14T01:32:37.377Z,14.83
2022-08-14T01:35:18.571Z,15.40
2022-08-14T01:37:57.689Z,15.27
2022-08-14T01:40:36.710Z,15.53
2022-08-14T01:43:18.931Z,15.23
2022-08-14T01:45:57.686Z,15.17
2022-08-14T01:48:33.801Z,16.30
2022-08-14T01:51:20.212Z,17.10
2022-08-14T01:53:55.277Z,17.40
2022-08-14T01:56:41.083Z,16.20
2022-08-14T01:59:20.459Z,15.87
2022-08-14T02:01:56.787Z,15.00
2022-08-14T02:04:54.988Z,14.70
2022-08-14T02:07:34.534Z,14.53
2022-08-14T02:10:13.048Z,15.33
2022-08-14T02:12:43.425Z,15.50
2022-08-14T02:15:11.488Z,15.77
2022-08-14T02:17:38.982Z,14.20
2022-08-14T02:20:08.674Z,16.50
2022-08-14T02:22:47.784Z,16.10
2022-08-14T02:25:16.634Z,14.67
2022-08-14T02:28:24.683Z,16.17
2022-08-14T02:30:33.880Z,18.70
2022-08-14T02:33:01.325Z,23.37
2022-08-14T02:35:32.754Z,22.80
2022-08-14T02:38:00.909Z,21.80
2022-08-14T02:40:33.797Z,18.40
2022-08-14T02:43:03.872Z,17.87
2022-08-14T02:45:38.625Z,16.90
2022-08-14T02:49:01.437Z,16.97
2022-08-14T02:51:01.430Z,15.87
2022-08-14T02:53:31.138Z,16.50
2022-08-14T02:56:02.596Z,14.83
2022-08-14T02:58:32.707Z,16.47
2022-08-14T03:01:00.304Z,15.23
2022-08-14T03:03:31.601Z,15.20
2022-08-14T03:06:00.273Z,15.37
2022-08-14T03:08:31.848Z,16.17
2022-08-14T03:11:07.647Z,14.97
2022-08-14T03:13:44.067Z,15.13
2022-08-14T03:16:19.856Z,14.70
2022-08-14T03:18:52.620Z,15.93
2022-08-14T03:21:23.713Z,15.63
2022-08-14T03:24:00.550Z,15.47
2022-08-14T03:26:29.564Z,17.00
2022-08-14T03:29:00.955Z,16.60
2022-08-14T03:31:29.446Z,17.30
2022-08-14T03:34:00.266Z,18.10
2022-08-14T03:37:51.989Z,17.70
2022-08-14T03:39:22.912Z,15.37
2022-08-14T03:41:55.571Z,15.87
2022-08-14T03:45:18.747Z,15.20
2022-08-14T03:47:12.290Z,17.77
2022-08-14T03:49:47.660Z,17.03
2022-08-14T03:52:38.412Z,14.70
2022-08-14T03:55:09.359Z,15.50
2022-08-14T03:57:37.342Z,14.07
2022-08-14T04:00:13.545Z,14.60
2022-08-14T04:02:47.081Z,14.20
2022-08-14T04:05:16.356Z,16.37
2022-08-14T04:07:49.948Z,16.00
2022-08-14T04:10:32.958Z,16.00
2022-08-14T04:13:06.258Z,18.13
2022-08-14T04:15:56.761Z,18.60
2022-08-14T04:18:22.402Z,18.73
2022-08-14T04:20:54.710Z,17.40
2022-08-14T04:23:29.796Z,17.50
2022-08-14T04:26:14.474Z,16.70
2022-08-14T04:29:07.076Z,17.50
2022-08-14T04:32:57.750Z,15.50
2022-08-14T04:34:27.134Z,15.50
2022-08-14T04:37:13.767Z,15.97
2022-08-14T04:40:08.762Z,17.00
2022-08-14T04:42:55.299Z,20.07
2022-08-14T04:45:24.402Z,20.30
2022-08-14T04:48:12.544Z,20.30
2022-08-14T04:50:54.048Z,22.97
2022-08-14T04:53:34.815Z,18.73
2022-08-14T04:56:05.914Z,19.80
2022-08-14T04:58:38.974Z,20.97
2022-08-14T05:01:21.489Z,19.77
2022-08-14T05:03:50.599Z,20.17
2022-08-14T05:06:37.964Z,19.53
2022-08-14T05:09:06.740Z,19.17
2022-08-14T05:11:36.529Z,20.30
2022-08-14T05:14:34.084Z,17.93
2022-08-14T05:16:52.201Z,17.70
2022-08-14T05:19:29.515Z,15.70
2022-08-14T05:22:16.571Z,18.53
2022-08-14T05:24:50.486Z,14.33
2022-08-14T05:27:22.942Z,16.57
2022-08-14T05:29:56.591Z,15.97
2022-08-14T05:32:27.167Z,13.73
2022-08-14T05:34:59.640Z,13.90
2022-08-14T05:37:29.716Z,15.93
2022-08-14T05:39:58.239Z,15.23
2022-08-14T05:42:29.497Z,15.40
2022-08-14T05:44:59.826Z,14.43
2022-08-14T05:47:28.964Z,15.73
2022-08-14T05:50:09.713Z,14.37
2022-08-14T05:52:44.710Z,15.00
2022-08-14T05:55:12.146Z,14.80
2022-08-14T05:57:50.631Z,15.67
2022-08-14T06:00:24.724Z,15.30
2022-08-14T06:03:00.867Z,14.50
2022-08-14T06:05:35.142Z,13.47
2022-08-14T06:08:08.452Z,15.20
2022-08-14T06:10:50.038Z,12.23
2022-08-14T06:13:18.636Z,13.97
2022-08-14T06:15:47.868Z,12.00
2022-08-14T06:18:17.568Z,13.50
2022-08-14T06:20:45.159Z,15.30
2022-08-14T06:23:13.426Z,16.00
2022-08-14T06:25:41.701Z,12.23
2022-08-14T06:28:27.495Z,15.47
2022-08-14T06:30:55.904Z,15.97
2022-08-14T06:33:23.069Z,14.27
2022-08-14T06:36:11.387Z,12.40
2022-08-14T06:38:38.482Z,16.47
2022-08-14T06:41:05.773Z,12.97
2022-08-14T06:43:37.971Z,13.83
2022-08-14T06:46:17.461Z,12.90
2022-08-14T06:48:50.434Z,14.03
2022-08-14T06:51:17.373Z,13.33
2022-08-14T06:53:44.363Z,13.27
2022-08-14T06:56:14.946Z,13.40
2022-08-14T06:58:41.890Z,12.80
2022-08-14T07:01:28.166Z,17.30
2022-08-14T07:04:23.737Z,14.80
2022-08-14T07:06:54.823Z,15.00
2022-08-14T07:09:28.255Z,13.00
2022-08-14T07:12:34.828Z,14.43
2022-08-14T07:15:00.962Z,12.67
2022-08-14T07:17:28.889Z,11.53
2022-08-14T07:19:59.173Z,12.80
2022-08-14T07:22:32.953Z,12.80
2022-08-14T07:25:13.820Z,13.00
2022-08-14T07:27:42.894Z,13.00
2022-08-14T07:30:34.403Z,13.33
2022-08-14T07:32:58.458Z,14.03
2022-08-14T07:35:30.237Z,12.60
2022-08-14T07:37:57.553Z,13.27
2022-08-14T07:40:27.630Z,11.07
2022-08-14T07:42:57.330Z,11.60
2022-08-14T07:45:42.118Z,11.43
2022-08-14T07:48:09.540Z,12.30
2022-08-14T07:50:45.023Z,12.60
2022-08-14T07:53:14.412Z,11.57
2022-08-14T07:55:43.059Z,12.37
2022-08-14T07:58:30.655Z,10.17
2022-08-14T08:00:58.210Z,10.90
2022-08-14T08:03:30.387Z,12.70
2022-08-14T08:05:57.811Z,11.30
2022-08-14T08:08:26.469Z,11.37
2022-08-14T08:11:02.879Z,11.60
2022-08-14T08:13:34.667Z,12.60
2022-08-14T08:16:08.256Z,11.63
2022-08-14T08:18:36.051Z,11.20
2022-08-14T08:21:03.500Z,11.27
2022-08-14T08:23:40.718Z,12.50
2022-08-14T08:26:18.866Z,12.27
2022-08-14T08:28:56.852Z,10.30
2022-08-14T08:31:25.306Z,11.10
2022-08-14T08:34:04.458Z,13.63
2022-08-14T08:36:41.910Z,12.50
2022-08-14T08:39:17.261Z,12.50
2022-08-14T08:41:53.651Z,14.60
2022-08-14T08:44:33.055Z,10.60
2022-08-14T08:47:06.280Z,12.70
2022-08-14T08:49:52.868Z,10.50
2022-08-14T08:52:31.685Z,12.00
2022-08-14T08:55:01.073Z,11.30
2022-08-14T08:57:35.966Z,12.80
2022-08-14T09:00:24.166Z,12.67
2022-08-14T09:02:58.310Z,13.13
2022-08-14T09:05:26.358Z,12.63
2022-08-14T09:07:56.481Z,12.57
2022-08-14T09:10:23.986Z,12.27
2022-08-14T09:12:56.236Z,13.20
2022-08-14T09:15:24.218Z,12.57
2022-08-14T09:17:52.793Z,13.57
2022-08-14T09:20:26.394Z,11.53
2022-08-14T09:22:58.977Z,11.27
2022-08-14T09:26:00.687Z,10.43
2022-08-14T09:28:14.471Z,10.63
2022-08-14T09:30:45.686Z,10.73
2022-08-14T09:33:43.052Z,10.70
2022-08-14T09:36:30.379Z,11.63
2022-08-14T09:39:37.943Z,10.50
2022-08-14T09:42:31.751Z,10.97
2022-08-14T09:45:24.077Z,8.80
2022-08-14T09:47:54.251Z,8.23
2022-08-14T09:50:29.746Z,8.70
2022-08-14T09:53:05.899Z,7.90
2022-08-14T09:55:45.869Z,7.40
2022-08-14T09:58:19.867Z,7.07
2022-08-14T10:00:54.426Z,8.23
2022-08-14T10:03:36.462Z,8.00
2022-08-14T10:06:29.698Z,7.97
2022-08-14T10:09:06.465Z,7.30
2022-08-14T10:11:43.354Z,8.73
2022-08-14T10:14:29.476Z,7.33
2022-08-14T10:17:05.397Z,6.80
2022-08-14T10:19:35.579Z,6.90
2022-08-14T10:23:11.783Z,5.73
2022-08-14T10:25:00.030Z,5.97
2022-08-14T10:27:29.071Z,5.30
2022-08-14T10:30:01.411Z,4.87
2022-08-14T10:32:40.341Z,4.47
2022-08-14T10:35:20.232Z,6.50
2022-08-14T10:37:52.219Z,5.60
2022-08-14T10:40:37.657Z,7.00
2022-08-14T10:43:25.814Z,6.10
2022-08-14T10:45:59.836Z,5.90
2022-08-14T10:48:45.770Z,6.03
2022-08-14T10:51:24.143Z,5.90
2022-08-14T10:53:56.802Z,6.03
2022-08-14T10:56:35.671Z,5.77
2022-08-14T10:59:08.663Z,5.97
2022-08-14T11:01:41.226Z,5.50
2022-08-14T11:04:25.836Z,6.23
2022-08-14T11:06:54.302Z,6.10
2022-08-14T11:09:21.478Z,5.50
2022-08-14T11:11:56.241Z,6.00
2022-08-14T11:14:26.514Z,6.40
2022-08-14T11:16:54.366Z,6.53
2022-08-14T11:19:25.083Z,6.03
2022-08-14T11:21:55.496Z,6.43
2022-08-14T11:24:54.831Z,5.77
2022-08-14T11:27:19.266Z,4.83
2022-08-14T11:29:52.824Z,4.60
2022-08-14T11:32:31.113Z,4.40
2022-08-14T11:35:03.437Z,3.80
2022-08-14T11:37:40.696Z,4.10
2022-08-14T11:40:16.525Z,3.70
2022-08-14T11:42:59.670Z,3.80
2022-08-14T11:45:36.980Z,4.00
2022-08-14T11:49:01.658Z,4.00
2022-08-14T11:51:23.665Z,4.30
2022-08-14T11:54:13.769Z,4.30
2022-08-14T11:56:50.758Z,4.53
2022-08-14T11:59:20.050Z,4.53
2022-08-14T12:01:54.982Z,4.30
2022-08-14T12:04:33.437Z,5.30
2022-08-14T12:07:01.668Z,4.30
2022-08-14T12:09:37.158Z,4.37
2022-08-14T12:12:35.544Z,4.80
2022-08-14T12:15:05.490Z,4.47
2022-08-14T12:17:47.565Z,4.73
2022-08-14T12:20:29.898Z,4.50
2022-08-14T12:23:02.707Z,5.07
2022-08-14T12:25:34.870Z,5.33
2022-08-14T12:28:10.233Z,4.70
2022-08-14T12:30:56.600Z,5.50
2022-08-14T12:33:30.848Z,5.50
2022-08-14T12:36:04.399Z,6.00
2022-08-14T12:38:43.512Z,5.30
2022-08-14T12:41:24.078Z,6.07
2022-08-14T12:43:55.643Z,6.00
2022-08-14T12:46:33.800Z,5.63
2022-08-14T12:49:10.163Z,5.53
2022-08-14T12:51:38.117Z,5.90
2022-08-14T12:54:28.586Z,5.30
2022-08-14T12:57:09.232Z,5.30
2022-08-14T12:59:43.100Z,5.17
2022-08-14T13:02:25.509Z,5.60
2022-08-14T13:04:58.076Z,5.63
2022-08-14T13:07:32.933Z,4.53
2022-08-14T13:10:45.912Z,4.90
2022-08-14T13:13:13.092Z,5.30
2022-08-14T13:15:47.985Z,5.80
2022-08-14T13:18:26.471Z,5.10
2022-08-14T13:21:01.046Z,4.30
2022-08-14T13:23:36.171Z,4.50
2022-08-14T13:26:03.890Z,5.00
2022-08-14T13:28:41.238Z,5.50
2022-08-14T13:31:24.140Z,4.33
2022-08-14T13:33:57.773Z,5.53
2022-08-14T13:36:54.414Z,4.43
2022-08-14T13:39:18.997Z,5.00
2022-08-14T13:41:47.843Z,4.37
2022-08-14T13:44:27.003Z,5.63
2022-08-14T13:46:53.917Z,4.40
2022-08-14T13:49:21.084Z,4.23
2022-08-14T13:51:53.241Z,4.80
2022-08-14T13:54:21.195Z,3.90
2022-08-14T13:56:49.912Z,4.00
2022-08-14T13:59:20.407Z,3.27
2022-08-14T14:02:08.712Z,3.70
2022-08-14T14:04:41.644Z,3.87
2022-08-14T14:07:16.416Z,3.40
2022-08-14T14:09:53.011Z,3.87
2022-08-14T14:12:37.482Z,3.70
2022-08-14T14:15:11.257Z,4.00
2022-08-14T14:17:39.586Z,3.90
2022-08-14T14:20:34.613Z,3.13
2022-08-14T14:23:02.402Z,3.70
2022-08-14T14:25:45.692Z,4.60
2022-08-14T14:28:16.467Z,4.20
2022-08-14T14:30:53.042Z,4.40
2022-08-14T14:33:45.116Z,4.80
2022-08-14T14:36:14.076Z,4.90
2022-08-14T14:38:44.255Z,3.87
2022-08-14T14:41:15.250Z,4.93
2022-08-14T14:43:47.051Z,5.93
2022-08-14T14:46:21.358Z,5.20
2022-08-14T14:48:53.967Z,5.57
2022-08-14T14:51:22.256Z,5.90
2022-08-14T14:53:49.433Z,5.67
2022-08-14T14:56:50.337Z,5.33
2022-08-14T14:59:04.632Z,5.70
2022-08-14T15:01:35.582Z,6.60
2022-08-14T15:04:08.031Z,6.93
2022-08-14T15:06:47.927Z,6.23
2022-08-14T15:09:17.775Z,5.60
2022-08-14T15:11:47.023Z,6.33
2022-08-14T15:14:56.030Z,12.17
2022-08-14T15:17:02.365Z,10.60
2022-08-14T15:19:29.691Z,7.70
2022-08-14T15:21:58.143Z,7.33
2022-08-14T15:24:27.061Z,9.57
2022-08-14T15:26:58.831Z,6.93
2022-08-14T15:29:27.182Z,5.77
2022-08-14T15:31:54.546Z,6.57
2022-08-14T15:34:43.998Z,6.27
2022-08-14T15:37:12.682Z,5.73
2022-08-14T15:39:44.319Z,6.17
2022-08-14T15:42:14.838Z,5.30
2022-08-14T15:44:57.998Z,5.13
2022-08-14T15:47:30.778Z,4.70
2022-08-14T15:50:04.969Z,4.87
2022-08-14T15:52:37.476Z,4.37
2022-08-14T15:55:15.389Z,4.83
2022-08-14T15:58:02.004Z,5.00
2022-08-14T16:00:53.915Z,4.70
2022-08-14T16:03:27.080Z,5.27
2022-08-14T16:06:01.878Z,5.30
2022-08-14T16:08:30.723Z,5.10
2022-08-14T16:11:04.039Z,5.47
2022-08-14T16:13:39.326Z,5.30
2022-08-14T16:16:47.021Z,5.57
2022-08-14T16:19:09.549Z,5.40
2022-08-14T16:21:40.586Z,6.00
2022-08-14T16:24:28.065Z,5.90
2022-08-14T16:27:00.922Z,5.50
2022-08-14T16:29:30.548Z,6.37
2022-08-14T16:32:32.821Z,6.20
2022-08-14T16:34:54.856Z,6.00
2022-08-14T16:37:31.170Z,6.63
2022-08-14T16:40:03.307Z,7.40
2022-08-14T16:42:39.153Z,6.90
2022-08-14T16:45:26.108Z,6.80
2022-08-14T16:47:55.113Z,6.70
2022-08-14T16:50:40.509Z,7.13
2022-08-14T16:53:10.511Z,6.70
2022-08-14T16:55:51.113Z,6.90
2022-08-14T16:58:27.199Z,6.07
2022-08-14T17:01:22.574Z,6.40
2022-08-14T17:03:58.353Z,7.77
2022-08-14T17:06:47.088Z,6.67
2022-08-14T17:09:37.029Z,6.07
2022-08-14T17:12:28.602Z,6.60
2022-08-14T17:15:15.163Z,5.83
2022-08-14T17:17:49.852Z,6.80
2022-08-14T17:20:54.052Z,6.60
2022-08-14T17:23:12.239Z,6.80
2022-08-14T17:25:51.146Z,6.93
2022-08-14T17:28:51.362Z,7.03
2022-08-14T17:31:08.485Z,7.37
2022-08-14T17:33:44.243Z,9.37
2022-08-14T17:39:17.280Z,7.30
2022-08-14T17:42:03.119Z,6.40
2022-08-14T17:44:45.410Z,9.07
2022-08-14T17:47:14.831Z,9.40
2022-08-14T17:49:51.867Z,9.67
2022-08-14T17:52:34.598Z,7.47
2022-08-14T17:55:12.616Z,7.80
2022-08-14T17:57:58.832Z,6.37
2022-08-14T18:00:26.372Z,7.10
2022-08-14T18:02:54.570Z,6.70
2022-08-14T18:06:06.937Z,6.37
2022-08-14T18:08:34.473Z,6.57
2022-08-14T18:11:00.215Z,7.23
2022-08-14T18:13:50.986Z,6.83
2022-08-14T18:16:20.314Z,6.97
2022-08-14T18:18:51.410Z,8.50
2022-08-14T18:21:40.566Z,7.53
2022-08-14T18:24:20.295Z,9.70
2022-08-14T18:27:17.404Z,7.73
2022-08-14T18:29:58.841Z,7.80
2022-08-14T18:32:32.025Z,8.07
2022-08-14T18:35:00.126Z,9.60
2022-08-14T18:37:27.642Z,7.60
2022-08-14T18:40:17.850Z,8.53
2022-08-14T18:42:47.826Z,7.70
2022-08-14T18:45:28.505Z,8.37
2022-08-14T18:48:18.726Z,10.13
2022-08-14T18:50:59.751Z,8.60
2022-08-14T18:53:34.272Z,9.17
2022-08-14T18:56:09.676Z,8.83
2022-08-14T18:58:56.900Z,9.13
2022-08-14T19:01:29.858Z,9.10
2022-08-14T19:03:58.937Z,9.00
2022-08-14T19:06:41.383Z,8.87
2022-08-14T19:09:08.790Z,8.00
2022-08-14T19:11:37.017Z,9.00
2022-08-14T19:14:05.733Z,8.83
2022-08-14T19:16:42.974Z,7.70
2022-08-14T19:19:12.907Z,7.83
2022-08-14T19:22:12.397Z,9.00
2022-08-14T19:24:44.050Z,8.10
2022-08-14T19:27:24.041Z,8.97
2022-08-14T19:30:20.081Z,9.17
2022-08-14T19:32:56.111Z,8.50
2022-08-14T19:35:55.189Z,8.47
2022-08-14T19:38:53.757Z,8.90
2022-08-14T19:41:29.716Z,9.57
2022-08-14T19:44:31.802Z,9.33
2022-08-14T19:47:04.846Z,10.10
2022-08-14T19:50:08.782Z,12.03
2022-08-14T19:52:35.232Z,9.57
2022-08-14T19:55:19.337Z,9.50
2022-08-14T19:57:52.424Z,10.60
2022-08-14T20:00:29.263Z,9.30
2022-08-14T20:03:10.491Z,9.70
2022-08-14T20:05:43.108Z,12.43
2022-08-14T20:09:06.468Z,10.00
2022-08-14T20:11:14.297Z,10.80
2022-08-14T20:13:59.864Z,11.80
2022-08-14T20:16:52.021Z,11.80
2022-08-14T20:19:37.539Z,11.17
2022-08-14T20:22:36.513Z,10.83
2022-08-14T20:24:54.632Z,10.83
2022-08-14T20:27:33.251Z,9.47
2022-08-14T20:30:29.134Z,10.70
2022-08-14T20:32:51.325Z,11.57
2022-08-14T20:35:35.626Z,11.93
2022-08-14T20:38:31.980Z,11.27
2022-08-14T20:41:06.530Z,11.43
2022-08-14T20:43:56.061Z,11.00
2022-08-14T20:46:38.312Z,12.03
2022-08-14T20:49:11.995Z,11.17
2022-08-14T20:51:59.033Z,11.53
2022-08-14T20:54:34.531Z,11.83
2022-08-14T20:57:08.435Z,10.90
2022-08-14T20:59:43.458Z,11.37
2022-08-14T21:02:38.543Z,16.70
2022-08-14T21:05:16.429Z,25.17
2022-08-14T21:07:50.702Z,13.13
2022-08-14T21:10:35.791Z,12.33
2022-08-14T21:14:08.694Z,10.47
2022-08-14T21:16:03.550Z,10.80
2022-08-14T21:18:35.259Z,12.53
2022-08-14T21:21:18.399Z,35.33
2022-08-14T21:23:55.813Z,13.00
2022-08-14T21:26:50.927Z,12.73
2022-08-14T21:29:20.916Z,10.60
2022-08-14T21:31:55.359Z,10.30
2022-08-14T21:34:31.248Z,10.53
2022-08-14T21:37:08.973Z,10.17
2022-08-14T21:39:37.874Z,10.27
2022-08-14T21:42:06.284Z,10.83
2022-08-14T21:44:42.962Z,10.70
2022-08-14T21:47:16.586Z,11.00
2022-08-14T21:49:46.180Z,11.13
2022-08-14T21:52:51.454Z,12.00
2022-08-14T21:55:12.426Z,11.60
2022-08-14T21:57:56.323Z,10.40
2022-08-14T22:00:39.694Z,11.23
2022-08-14T22:03:16.565Z,10.53
2022-08-14T22:05:46.359Z,11.30
2022-08-14T22:08:13.863Z,11.60
2022-08-14T22:10:44.864Z,10.83
2022-08-14T22:13:16.810Z,11.67
2022-08-14T22:15:49.484Z,12.87
2022-08-14T22:18:20.323Z,10.83
2022-08-14T22:20:53.852Z,11.00
2022-08-14T22:23:22.928Z,11.07
2022-08-14T22:25:51.234Z,10.90
2022-08-14T22:28:32.862Z,9.90
2022-08-14T22:31:10.416Z,12.00
2022-08-14T22:33:39.478Z,12.37
2022-08-14T22:36:26.412Z,11.70
2022-08-14T22:38:54.567Z,11.20
2022-08-14T22:41:29.150Z,10.97
2022-08-14T22:44:06.548Z,12.30
2022-08-14T22:46:33.737Z,11.40
2022-08-14T22:49:16.677Z,11.40
2022-08-14T22:51:49.244Z,12.37
2022-08-14T22:54:52.179Z,12.70
2022-08-14T22:57:06.207Z,13.00
2022-08-14T22:59:38.978Z,12.70
2022-08-14T23:02:12.809Z,12.13
2022-08-14T23:04:54.058Z,12.10
2022-08-14T23:07:24.087Z,12.80
2022-08-14T23:09:57.668Z,12.70
2022-08-14T23:12:54.810Z,13.60
2022-08-14T23:15:24.133Z,13.73
2022-08-14T23:17:55.911Z,14.40
2022-08-14T23:20:23.602Z,12.23
2022-08-14T23:22:57.784Z,13.30
2022-08-14T23:25:56.903Z,13.90
2022-08-14T23:28:34.157Z,13.20
2022-08-14T23:31:08.235Z,13.60
2022-08-14T23:33:45.837Z,12.50
2022-08-14T23:36:32.832Z,14.07
2022-08-14T23:39:02.135Z,13.07
2022-08-14T23:41:46.565Z,13.20
2022-08-14T23:44:22.511Z,13.23
2022-08-14T23:46:56.903Z,12.20
2022-08-14T23:50:01.297Z,13.40
2022-08-14T23:52:55.558Z,14.07
2022-08-14T23:55:06.248Z,13.50
2022-08-14T23:57:44.067Z,15.00
